sensor_id;sensor_type;location;lat;lon;timestamp;temperature;humidity
1594;DHT22;790;47.000;16.084;2022-07-23T00:01:31;21.20;99.90
1594;DHT22;790;47.000;16.084;2022-07-23T00:03:58;21.30;99.90
1594;DHT22;790;47.000;16.084;2022-07-23T00:06:25;21.30;99.90
1594;DHT22;790;47.000;16.084;2022-07-23T00:08:54;21.20;99.90
1594;DHT22;790;47.000;16.084;2022-07-23T00:11:21;21.20;99.90
1594;DHT22;790;47.000;16.084;2022-07-23T00:13:48;21.20;99.90
1594;DHT22;790;47.000;16.084;2022-07-23T00:16:15;21.20;99.90
1594;DHT22;790;47.000;16.084;2022-07-23T00:18:42;21.20;99.90
1594;DHT22;790;47.000;16.084;2022-07-23T00:21:10;21.10;99.90
1594;DHT22;790;47.000;16.084;2022-07-23T00:23:37;21.20;99.90
1594;DHT22;790;47.000;16.084;2022-07-23T00:26:05;21.20;99.90
1594;DHT22;790;47.000;16.084;2022-07-23T00:28:33;21.10;99.90
1594;DHT22;790;47.000;16.084;2022-07-23T00:31:01;21.00;99.90
1594;DHT22;790;47.000;16.084;2022-07-23T00:33:28;21.00;99.90
1594;DHT22;790;47.000;16.084;2022-07-23T00:35:55;21.10;99.90
1594;DHT22;790;47.000;16.084;2022-07-23T00:38:22;21.00;99.90
1594;DHT22;790;47.000;16.084;2022-07-23T00:40:49;21.10;99.90
1594;DHT22;790;47.000;16.084;2022-07-23T00:43:19;21.00;99.90
1594;DHT22;790;47.000;16.084;2022-07-23T00:45:47;21.00;99.90
1594;DHT22;790;47.000;16.084;2022-07-23T00:48:14;21.10;99.90
1594;DHT22;790;47.000;16.084;2022-07-23T00:50:42;21.20;99.90
1594;DHT22;790;47.000;16.084;2022-07-23T00:53:09;21.10;99.90
1594;DHT22;790;47.000;16.084;2022-07-23T00:55:36;21.20;99.90
1594;DHT22;790;47.000;16.084;2022-07-23T00:58:04;21.10;99.90
1594;DHT22;790;47.000;16.084;2022-07-23T01:00:33;21.10;99.90
1594;DHT22;790;47.000;16.084;2022-07-23T01:03:00;21.10;99.90
1594;DHT22;790;47.000;16.084;2022-07-23T01:05:27;21.00;99.90
1594;DHT22;790;47.000;16.084;2022-07-23T01:07:54;20.90;99.90
1594;DHT22;790;47.000;16.084;2022-07-23T01:10:21;20.80;99.90
1594;DHT22;790;47.000;16.084;2022-07-23T01:12:58;20.70;99.90
1594;DHT22;790;47.000;16.084;2022-07-23T01:15:25;20.70;99.90
1594;DHT22;790;47.000;16.084;2022-07-23T01:17:54;20.70;99.90
1594;DHT22;790;47.000;16.084;2022-07-23T01:20:22;20.70;99.90
1594;DHT22;790;47.000;16.084;2022-07-23T01:22:50;20.70;99.90
1594;DHT22;790;47.000;16.084;2022-07-23T01:25:18;20.70;99.90
1594;DHT22;790;47.000;16.084;2022-07-23T01:27:45;20.70;99.90
1594;DHT22;790;47.000;16.084;2022-07-23T01:30:13;20.80;99.90
1594;DHT22;790;47.000;16.084;2022-07-23T01:32:40;20.80;99.90
1594;DHT22;790;47.000;16.084;2022-07-23T01:35:08;20.80;99.90
1594;DHT22;790;47.000;16.084;2022-07-23T01:37:36;20.80;99.90
1594;DHT22;790;47.000;16.084;2022-07-23T01:40:06;20.80;99.90
1594;DHT22;790;47.000;16.084;2022-07-23T01:42:34;20.80;99.90
1594;DHT22;790;47.000;16.084;2022-07-23T01:45:03;20.80;99.90
1594;DHT22;790;47.000;16.084;2022-07-23T01:47:30;20.80;99.90
1594;DHT22;790;47.000;16.084;2022-07-23T01:49:57;20.80;99.90
1594;DHT22;790;47.000;16.084;2022-07-23T01:52:24;20.80;99.90
1594;DHT22;790;47.000;16.084;2022-07-23T01:54:51;20.80;99.90
1594;DHT22;790;47.000;16.084;2022-07-23T01:57:20;20.80;99.90
1594;DHT22;790;47.000;16.084;2022-07-23T01:59:48;20.70;99.90
1594;DHT22;790;47.000;16.084;2022-07-23T02:02:15;20.60;99.90
1594;DHT22;790;47.000;16.084;2022-07-23T02:04:42;20.50;99.90
1594;DHT22;790;47.000;16.084;2022-07-23T02:07:09;20.50;99.90
1594;DHT22;790;47.000;16.084;2022-07-23T02:09:37;20.50;99.90
1594;DHT22;790;47.000;16.084;2022-07-23T02:12:04;20.50;99.90
1594;DHT22;790;47.000;16.084;2022-07-23T02:14:33;20.50;99.90
1594;DHT22;790;47.000;16.084;2022-07-23T02:17:00;20.50;99.90
1594;DHT22;790;47.000;16.084;2022-07-23T02:19:27;20.50;99.90
1594;DHT22;790;47.000;16.084;2022-07-23T02:21:54;20.50;99.90
1594;DHT22;790;47.000;16.084;2022-07-23T02:24:22;20.50;99.90
1594;DHT22;790;47.000;16.084;2022-07-23T02:26:49;20.50;99.90
1594;DHT22;790;47.000;16.084;2022-07-23T02:29:16;20.40;99.90
1594;DHT22;790;47.000;16.084;2022-07-23T02:31:44;20.50;99.90
1594;DHT22;790;47.000;16.084;2022-07-23T02:34:12;20.60;99.90
1594;DHT22;790;47.000;16.084;2022-07-23T02:36:39;20.70;99.90
1594;DHT22;790;47.000;16.084;2022-07-23T02:39:06;20.70;99.90
1594;DHT22;790;47.000;16.084;2022-07-23T02:41:33;20.70;99.90
1594;DHT22;790;47.000;16.084;2022-07-23T02:44:01;20.60;99.90
1594;DHT22;790;47.000;16.084;2022-07-23T02:46:28;20.50;99.90
1594;DHT22;790;47.000;16.084;2022-07-23T02:48:56;20.40;99.90
1594;DHT22;790;47.000;16.084;2022-07-23T02:51:23;20.40;99.90
1594;DHT22;790;47.000;16.084;2022-07-23T02:53:50;20.40;99.90
1594;DHT22;790;47.000;16.084;2022-07-23T02:56:17;20.30;99.90
1594;DHT22;790;47.000;16.084;2022-07-23T02:58:44;20.40;99.90
1594;DHT22;790;47.000;16.084;2022-07-23T03:01:11;20.30;99.90
1594;DHT22;790;47.000;16.084;2022-07-23T03:03:39;20.30;99.90
1594;DHT22;790;47.000;16.084;2022-07-23T03:06:07;20.30;99.90
1594;DHT22;790;47.000;16.084;2022-07-23T03:08:34;20.20;99.90
1594;DHT22;790;47.000;16.084;2022-07-23T03:11:01;20.20;99.90
1594;DHT22;790;47.000;16.084;2022-07-23T03:13:28;20.20;99.90
1594;DHT22;790;47.000;16.084;2022-07-23T03:15:56;20.30;99.90
1594;DHT22;790;47.000;16.084;2022-07-23T03:18:23;20.30;99.90
1594;DHT22;790;47.000;16.084;2022-07-23T03:20:50;20.30;99.90
1594;DHT22;790;47.000;16.084;2022-07-23T03:23:18;20.30;99.90
1594;DHT22;790;47.000;16.084;2022-07-23T03:25:45;20.30;99.90
1594;DHT22;790;47.000;16.084;2022-07-23T03:28:14;20.30;99.90
1594;DHT22;790;47.000;16.084;2022-07-23T03:30:41;20.40;99.90
1594;DHT22;790;47.000;16.084;2022-07-23T03:33:08;20.40;99.90
1594;DHT22;790;47.000;16.084;2022-07-23T03:35:35;20.30;99.90
1594;DHT22;790;47.000;16.084;2022-07-23T03:38:02;20.30;99.90
1594;DHT22;790;47.000;16.084;2022-07-23T03:40:31;20.20;99.90
1594;DHT22;790;47.000;16.084;2022-07-23T03:42:58;20.10;99.90
1594;DHT22;790;47.000;16.084;2022-07-23T03:45:25;20.10;99.90
1594;DHT22;790;47.000;16.084;2022-07-23T03:47:53;20.10;99.90
1594;DHT22;790;47.000;16.084;2022-07-23T03:50:20;20.00;99.90
1594;DHT22;790;47.000;16.084;2022-07-23T03:52:47;20.00;99.90
1594;DHT22;790;47.000;16.084;2022-07-23T03:55:15;20.10;99.90
1594;DHT22;790;47.000;16.084;2022-07-23T03:57:44;20.10;99.90
1594;DHT22;790;47.000;16.084;2022-07-23T04:00:12;20.10;99.90
1594;DHT22;790;47.000;16.084;2022-07-23T04:02:40;20.00;99.90
1594;DHT22;790;47.000;16.084;2022-07-23T04:05:07;20.00;99.90
1594;DHT22;790;47.000;16.084;2022-07-23T04:07:34;20.00;99.90
1594;DHT22;790;47.000;16.084;2022-07-23T04:10:02;20.00;99.90
1594;DHT22;790;47.000;16.084;2022-07-23T04:12:29;20.10;99.90
1594;DHT22;790;47.000;16.084;2022-07-23T04:14:57;20.10;99.90
1594;DHT22;790;47.000;16.084;2022-07-23T04:17:24;20.00;99.90
1594;DHT22;790;47.000;16.084;2022-07-23T04:19:52;19.90;99.90
1594;DHT22;790;47.000;16.084;2022-07-23T04:22:19;19.90;99.90
1594;DHT22;790;47.000;16.084;2022-07-23T04:24:46;20.00;99.90
1594;DHT22;790;47.000;16.084;2022-07-23T04:27:14;20.10;99.90
1594;DHT22;790;47.000;16.084;2022-07-23T04:29:41;20.20;99.90
1594;DHT22;790;47.000;16.084;2022-07-23T04:32:10;20.20;99.90
1594;DHT22;790;47.000;16.084;2022-07-23T04:34:37;20.20;99.90
1594;DHT22;790;47.000;16.084;2022-07-23T04:37:04;20.10;99.90
1594;DHT22;790;47.000;16.084;2022-07-23T04:39:31;20.10;99.90
1594;DHT22;790;47.000;16.084;2022-07-23T04:41:58;20.10;99.90
1594;DHT22;790;47.000;16.084;2022-07-23T04:44:25;20.00;99.90
1594;DHT22;790;47.000;16.084;2022-07-23T04:46:52;20.00;99.90
1594;DHT22;790;47.000;16.084;2022-07-23T04:49:21;20.10;99.90
1594;DHT22;790;47.000;16.084;2022-07-23T04:51:48;20.10;99.90
1594;DHT22;790;47.000;16.084;2022-07-23T04:54:15;20.20;99.90
1594;DHT22;790;47.000;16.084;2022-07-23T04:56:43;20.30;99.90
1594;DHT22;790;47.000;16.084;2022-07-23T04:59:10;20.30;99.90
1594;DHT22;790;47.000;16.084;2022-07-23T05:01:37;20.40;99.90
1594;DHT22;790;47.000;16.084;2022-07-23T05:04:04;20.50;99.90
1594;DHT22;790;47.000;16.084;2022-07-23T05:06:32;20.50;99.90
1594;DHT22;790;47.000;16.084;2022-07-23T05:09:00;20.60;99.90
1594;DHT22;790;47.000;16.084;2022-07-23T05:11:27;20.70;99.90
1594;DHT22;790;47.000;16.084;2022-07-23T05:13:54;20.80;99.90
1594;DHT22;790;47.000;16.084;2022-07-23T05:16:21;20.80;99.90
1594;DHT22;790;47.000;16.084;2022-07-23T05:18:48;20.90;99.90
1594;DHT22;790;47.000;16.084;2022-07-23T05:21:15;21.00;99.90
1594;DHT22;790;47.000;16.084;2022-07-23T05:23:44;21.00;99.90
1594;DHT22;790;47.000;16.084;2022-07-23T05:26:11;21.10;99.90
1594;DHT22;790;47.000;16.084;2022-07-23T05:28:38;21.20;99.90
1594;DHT22;790;47.000;16.084;2022-07-23T05:31:05;21.30;99.90
1594;DHT22;790;47.000;16.084;2022-07-23T05:33:32;21.30;99.90
1594;DHT22;790;47.000;16.084;2022-07-23T05:36:03;21.40;99.90
1594;DHT22;790;47.000;16.084;2022-07-23T05:38:32;21.50;99.90
1594;DHT22;790;47.000;16.084;2022-07-23T05:41:01;21.70;99.90
1594;DHT22;790;47.000;16.084;2022-07-23T05:43:28;21.70;99.90
1594;DHT22;790;47.000;16.084;2022-07-23T05:45:55;21.80;99.90
1594;DHT22;790;47.000;16.084;2022-07-23T05:48:22;21.90;99.90
1594;DHT22;790;47.000;16.084;2022-07-23T05:50:49;21.90;99.90
1594;DHT22;790;47.000;16.084;2022-07-23T05:53:17;22.00;99.90
1594;DHT22;790;47.000;16.084;2022-07-23T05:55:44;22.00;99.90
1594;DHT22;790;47.000;16.084;2022-07-23T05:58:12;22.10;99.90
1594;DHT22;790;47.000;16.084;2022-07-23T06:00:40;22.20;99.90
1594;DHT22;790;47.000;16.084;2022-07-23T06:03:07;22.20;99.90
1594;DHT22;790;47.000;16.084;2022-07-23T06:05:34;22.30;99.90
1594;DHT22;790;47.000;16.084;2022-07-23T06:08:01;22.40;99.90
1594;DHT22;790;47.000;16.084;2022-07-23T06:10:29;22.50;99.90
1594;DHT22;790;47.000;16.084;2022-07-23T06:12:56;22.60;99.90
1594;DHT22;790;47.000;16.084;2022-07-23T06:15:24;22.70;99.90
1594;DHT22;790;47.000;16.084;2022-07-23T06:17:51;22.90;99.90
1594;DHT22;790;47.000;16.084;2022-07-23T06:20:18;22.90;99.90
1594;DHT22;790;47.000;16.084;2022-07-23T06:22:46;23.10;99.90
1594;DHT22;790;47.000;16.084;2022-07-23T06:25:13;23.20;99.90
1594;DHT22;790;47.000;16.084;2022-07-23T06:27:42;23.20;99.90
1594;DHT22;790;47.000;16.084;2022-07-23T06:30:10;23.40;99.90
1594;DHT22;790;47.000;16.084;2022-07-23T06:32:39;23.50;99.90
1594;DHT22;790;47.000;16.084;2022-07-23T06:35:07;23.70;99.90
1594;DHT22;790;47.000;16.084;2022-07-23T06:37:34;23.90;99.90
1594;DHT22;790;47.000;16.084;2022-07-23T06:40:01;24.00;99.90
1594;DHT22;790;47.000;16.084;2022-07-23T06:42:28;24.10;99.90
1594;DHT22;790;47.000;16.084;2022-07-23T06:44:55;24.30;99.90
1594;DHT22;790;47.000;16.084;2022-07-23T06:47:22;24.40;99.90
1594;DHT22;790;47.000;16.084;2022-07-23T06:49:51;24.50;99.90
1594;DHT22;790;47.000;16.084;2022-07-23T06:52:18;24.60;99.90
1594;DHT22;790;47.000;16.084;2022-07-23T06:54:45;24.80;99.90
1594;DHT22;790;47.000;16.084;2022-07-23T06:57:12;24.90;99.90
1594;DHT22;790;47.000;16.084;2022-07-23T06:59:39;25.10;99.90
1594;DHT22;790;47.000;16.084;2022-07-23T07:02:07;25.20;99.90
1594;DHT22;790;47.000;16.084;2022-07-23T07:04:34;25.30;99.90
1594;DHT22;790;47.000;16.084;2022-07-23T07:07:03;25.40;99.90
1594;DHT22;790;47.000;16.084;2022-07-23T07:09:30;25.60;99.90
1594;DHT22;790;47.000;16.084;2022-07-23T07:11:57;25.70;99.90
1594;DHT22;790;47.000;16.084;2022-07-23T07:14:24;25.80;99.90
1594;DHT22;790;47.000;16.084;2022-07-23T07:16:51;26.00;99.90
1594;DHT22;790;47.000;16.084;2022-07-23T07:19:18;26.10;99.90
1594;DHT22;790;47.000;16.084;2022-07-23T07:21:45;26.20;99.90
1594;DHT22;790;47.000;16.084;2022-07-23T07:24:14;26.20;99.90
1594;DHT22;790;47.000;16.084;2022-07-23T07:26:41;26.30;99.90
1594;DHT22;790;47.000;16.084;2022-07-23T07:29:08;26.40;99.90
1594;DHT22;790;47.000;16.084;2022-07-23T07:31:35;26.50;99.90
1594;DHT22;790;47.000;16.084;2022-07-23T07:34:02;26.60;99.90
1594;DHT22;790;47.000;16.084;2022-07-23T07:36:29;26.70;99.90
1594;DHT22;790;47.000;16.084;2022-07-23T07:38:56;26.80;99.90
1594;DHT22;790;47.000;16.084;2022-07-23T07:41:26;26.90;99.90
1594;DHT22;790;47.000;16.084;2022-07-23T07:43:53;27.00;99.90
1594;DHT22;790;47.000;16.084;2022-07-23T07:46:20;27.10;99.90
1594;DHT22;790;47.000;16.084;2022-07-23T07:48:49;27.20;99.90
1594;DHT22;790;47.000;16.084;2022-07-23T07:51:17;27.30;99.90
1594;DHT22;790;47.000;16.084;2022-07-23T07:53:44;27.40;99.90
1594;DHT22;790;47.000;16.084;2022-07-23T07:56:11;27.60;99.90
1594;DHT22;790;47.000;16.084;2022-07-23T07:58:39;27.80;99.90
1594;DHT22;790;47.000;16.084;2022-07-23T08:01:06;27.90;99.90
1594;DHT22;790;47.000;16.084;2022-07-23T08:03:33;28.00;99.90
1594;DHT22;790;47.000;16.084;2022-07-23T08:06:01;28.10;99.90
1594;DHT22;790;47.000;16.084;2022-07-23T08:08:28;28.20;99.90
1594;DHT22;790;47.000;16.084;2022-07-23T08:10:55;28.40;99.90
1594;DHT22;790;47.000;16.084;2022-07-23T08:13:22;28.40;99.90
1594;DHT22;790;47.000;16.084;2022-07-23T08:15:50;28.50;99.90
1594;DHT22;790;47.000;16.084;2022-07-23T08:18:18;28.60;99.90
1594;DHT22;790;47.000;16.084;2022-07-23T08:20:45;28.60;99.90
1594;DHT22;790;47.000;16.084;2022-07-23T08:23:13;28.60;99.90
1594;DHT22;790;47.000;16.084;2022-07-23T08:25:41;28.70;99.90
1594;DHT22;790;47.000;16.084;2022-07-23T08:28:10;28.90;99.90
1594;DHT22;790;47.000;16.084;2022-07-23T08:30:39;29.00;99.90
1594;DHT22;790;47.000;16.084;2022-07-23T08:33:09;29.00;99.90
1594;DHT22;790;47.000;16.084;2022-07-23T08:35:40;29.10;99.90
1594;DHT22;790;47.000;16.084;2022-07-23T08:38:08;29.20;99.90
1594;DHT22;790;47.000;16.084;2022-07-23T08:40:37;29.30;99.90
1594;DHT22;790;47.000;16.084;2022-07-23T08:43:06;29.50;99.90
1594;DHT22;790;47.000;16.084;2022-07-23T08:45:36;29.60;99.90
1594;DHT22;790;47.000;16.084;2022-07-23T08:48:07;29.70;99.90
1594;DHT22;790;47.000;16.084;2022-07-23T08:50:35;29.70;99.90
1594;DHT22;790;47.000;16.084;2022-07-23T08:53:06;29.80;99.90
1594;DHT22;790;47.000;16.084;2022-07-23T08:55:33;29.90;99.90
1594;DHT22;790;47.000;16.084;2022-07-23T08:58:01;30.00;99.90
1594;DHT22;790;47.000;16.084;2022-07-23T09:00:29;30.00;99.90
1594;DHT22;790;47.000;16.084;2022-07-23T09:02:56;30.00;99.90
1594;DHT22;790;47.000;16.084;2022-07-23T09:05:25;30.00;99.90
1594;DHT22;790;47.000;16.084;2022-07-23T09:08:10;30.10;99.90
1594;DHT22;790;47.000;16.084;2022-07-23T09:10:45;30.20;99.90
1594;DHT22;790;47.000;16.084;2022-07-23T09:13:35;30.30;99.90
1594;DHT22;790;47.000;16.084;2022-07-23T09:16:06;30.40;99.90
1594;DHT22;790;47.000;16.084;2022-07-23T09:18:36;30.40;99.90
1594;DHT22;790;47.000;16.084;2022-07-23T09:21:12;30.50;99.90
1594;DHT22;790;47.000;16.084;2022-07-23T09:23:41;30.60;99.90
1594;DHT22;790;47.000;16.084;2022-07-23T09:26:23;30.70;99.90
1594;DHT22;790;47.000;16.084;2022-07-23T09:28:56;30.80;99.90
1594;DHT22;790;47.000;16.084;2022-07-23T09:31:25;30.90;99.90
1594;DHT22;790;47.000;16.084;2022-07-23T09:34:07;31.00;99.90
1594;DHT22;790;47.000;16.084;2022-07-23T09:36:36;30.90;99.90
1594;DHT22;790;47.000;16.084;2022-07-23T09:39:03;31.00;99.90
1594;DHT22;790;47.000;16.084;2022-07-23T09:41:35;31.10;99.90
1594;DHT22;790;47.000;16.084;2022-07-23T09:44:08;31.30;99.90
1594;DHT22;790;47.000;16.084;2022-07-23T09:46:36;31.40;99.90
1594;DHT22;790;47.000;16.084;2022-07-23T09:49:14;31.50;99.90
1594;DHT22;790;47.000;16.084;2022-07-23T09:51:56;31.70;99.90
1594;DHT22;790;47.000;16.084;2022-07-23T09:54:28;31.80;99.90
1594;DHT22;790;47.000;16.084;2022-07-23T09:56:57;31.90;99.90
1594;DHT22;790;47.000;16.084;2022-07-23T09:59:26;31.90;99.90
1594;DHT22;790;47.000;16.084;2022-07-23T10:01:55;31.90;99.90
1594;DHT22;790;47.000;16.084;2022-07-23T10:04:26;31.80;99.90
1594;DHT22;790;47.000;16.084;2022-07-23T10:06:56;31.90;99.90
1594;DHT22;790;47.000;16.084;2022-07-23T10:09:26;31.90;99.90
1594;DHT22;790;47.000;16.084;2022-07-23T10:11:58;31.90;99.90
1594;DHT22;790;47.000;16.084;2022-07-23T10:14:29;31.90;99.90
1594;DHT22;790;47.000;16.084;2022-07-23T10:16:58;32.00;99.90
1594;DHT22;790;47.000;16.084;2022-07-23T10:19:26;32.00;99.90
1594;DHT22;790;47.000;16.084;2022-07-23T10:21:57;32.00;99.90
1594;DHT22;790;47.000;16.084;2022-07-23T10:24:44;32.10;99.90
1594;DHT22;790;47.000;16.084;2022-07-23T10:30:07;32.60;99.90
1594;DHT22;790;47.000;16.084;2022-07-23T10:32:40;32.70;99.90
1594;DHT22;790;47.000;16.084;2022-07-23T10:35:18;32.80;99.90
1594;DHT22;790;47.000;16.084;2022-07-23T10:37:53;32.90;99.90
1594;DHT22;790;47.000;16.084;2022-07-23T10:40:21;33.00;99.90
1594;DHT22;790;47.000;16.084;2022-07-23T10:42:50;33.20;99.90
1594;DHT22;790;47.000;16.084;2022-07-23T10:45:29;33.30;99.90
1594;DHT22;790;47.000;16.084;2022-07-23T10:48:13;33.40;99.90
1594;DHT22;790;47.000;16.084;2022-07-23T10:50:41;33.40;99.90
1594;DHT22;790;47.000;16.084;2022-07-23T10:53:15;33.50;99.90
1594;DHT22;790;47.000;16.084;2022-07-23T10:55:52;33.60;99.90
1594;DHT22;790;47.000;16.084;2022-07-23T10:58:22;33.70;99.90
1594;DHT22;790;47.000;16.084;2022-07-23T11:00:50;33.70;99.90
1594;DHT22;790;47.000;16.084;2022-07-23T11:03:31;33.50;99.90
1594;DHT22;790;47.000;16.084;2022-07-23T11:06:01;33.40;99.90
1594;DHT22;790;47.000;16.084;2022-07-23T11:08:30;33.40;98.50
1594;DHT22;790;47.000;16.084;2022-07-23T11:11:09;33.30;99.70
1594;DHT22;790;47.000;16.084;2022-07-23T11:13:39;33.40;99.90
1594;DHT22;790;47.000;16.084;2022-07-23T11:16:11;33.30;97.90
1594;DHT22;790;47.000;16.084;2022-07-23T11:18:58;33.30;99.60
1594;DHT22;790;47.000;16.084;2022-07-23T11:21:46;33.20;99.90
1594;DHT22;790;47.000;16.084;2022-07-23T11:24:21;33.20;99.90
1594;DHT22;790;47.000;16.084;2022-07-23T11:27:03;33.20;99.90
1594;DHT22;790;47.000;16.084;2022-07-23T11:29:44;33.30;97.60
1594;DHT22;790;47.000;16.084;2022-07-23T11:32:27;33.30;98.50
1594;DHT22;790;47.000;16.084;2022-07-23T11:34:56;33.30;99.90
1594;DHT22;790;47.000;16.084;2022-07-23T11:37:37;33.20;99.20
1594;DHT22;790;47.000;16.084;2022-07-23T11:40:09;33.40;99.90
1594;DHT22;790;47.000;16.084;2022-07-23T11:42:37;33.60;99.90
1594;DHT22;790;47.000;16.084;2022-07-23T11:45:06;33.80;98.30
1594;DHT22;790;47.000;16.084;2022-07-23T11:47:34;33.90;97.30
1594;DHT22;790;47.000;16.084;2022-07-23T11:50:05;33.90;98.60
1594;DHT22;790;47.000;16.084;2022-07-23T11:52:33;34.00;94.80
1594;DHT22;790;47.000;16.084;2022-07-23T11:55:02;33.90;95.40
1594;DHT22;790;47.000;16.084;2022-07-23T11:57:33;33.60;95.30
1594;DHT22;790;47.000;16.084;2022-07-23T12:00:04;33.70;99.00
1594;DHT22;790;47.000;16.084;2022-07-23T12:02:32;33.80;98.20
1594;DHT22;790;47.000;16.084;2022-07-23T12:04:59;34.00;98.60
1594;DHT22;790;47.000;16.084;2022-07-23T12:07:30;34.10;98.10
1594;DHT22;790;47.000;16.084;2022-07-23T12:10:00;34.20;98.40
1594;DHT22;790;47.000;16.084;2022-07-23T12:12:27;34.30;97.50
1594;DHT22;790;47.000;16.084;2022-07-23T12:15:03;34.50;98.10
1594;DHT22;790;47.000;16.084;2022-07-23T12:17:33;34.50;95.30
1594;DHT22;790;47.000;16.084;2022-07-23T12:20:01;34.60;94.60
1594;DHT22;790;47.000;16.084;2022-07-23T12:22:34;34.50;95.80
1594;DHT22;790;47.000;16.084;2022-07-23T12:25:05;34.60;96.50
1594;DHT22;790;47.000;16.084;2022-07-23T12:27:32;34.60;94.30
1594;DHT22;790;47.000;16.084;2022-07-23T12:30:16;34.70;95.20
1594;DHT22;790;47.000;16.084;2022-07-23T12:32:44;34.60;94.60
1594;DHT22;790;47.000;16.084;2022-07-23T12:35:12;34.50;93.80
1594;DHT22;790;47.000;16.084;2022-07-23T12:37:40;34.30;94.70
1594;DHT22;790;47.000;16.084;2022-07-23T12:40:22;34.30;93.70
1594;DHT22;790;47.000;16.084;2022-07-23T12:42:52;34.20;93.70
1594;DHT22;790;47.000;16.084;2022-07-23T12:45:21;34.20;94.10
1594;DHT22;790;47.000;16.084;2022-07-23T12:48:05;34.20;93.70
1594;DHT22;790;47.000;16.084;2022-07-23T12:50:37;34.30;94.40
1594;DHT22;790;47.000;16.084;2022-07-23T12:53:07;34.40;95.90
1594;DHT22;790;47.000;16.084;2022-07-23T12:55:35;34.50;94.80
1594;DHT22;790;47.000;16.084;2022-07-23T12:58:09;34.60;96.20
1594;DHT22;790;47.000;16.084;2022-07-23T13:03:40;34.80;95.40
1594;DHT22;790;47.000;16.084;2022-07-23T13:06:09;34.70;95.10
1594;DHT22;790;47.000;16.084;2022-07-23T13:08:37;34.90;95.10
1594;DHT22;790;47.000;16.084;2022-07-23T13:11:06;34.90;95.70
1594;DHT22;790;47.000;16.084;2022-07-23T13:13:34;34.70;92.90
1594;DHT22;790;47.000;16.084;2022-07-23T13:16:03;34.40;91.10
1594;DHT22;790;47.000;16.084;2022-07-23T13:18:31;34.40;92.60
1594;DHT22;790;47.000;16.084;2022-07-23T13:20:58;34.40;93.50
1594;DHT22;790;47.000;16.084;2022-07-23T13:23:25;34.30;91.30
1594;DHT22;790;47.000;16.084;2022-07-23T13:25:53;34.30;92.40
1594;DHT22;790;47.000;16.084;2022-07-23T13:28:21;34.40;93.80
1594;DHT22;790;47.000;16.084;2022-07-23T13:30:50;34.40;91.80
1594;DHT22;790;47.000;16.084;2022-07-23T13:33:20;34.20;93.20
1594;DHT22;790;47.000;16.084;2022-07-23T13:35:47;34.30;92.80
1594;DHT22;790;47.000;16.084;2022-07-23T13:38:15;34.40;92.80
1594;DHT22;790;47.000;16.084;2022-07-23T13:40:45;34.60;92.60
1594;DHT22;790;47.000;16.084;2022-07-23T13:43:16;34.70;93.40
1594;DHT22;790;47.000;16.084;2022-07-23T13:45:43;34.80;92.50
1594;DHT22;790;47.000;16.084;2022-07-23T13:48:11;34.90;95.30
1594;DHT22;790;47.000;16.084;2022-07-23T13:50:41;35.00;95.90
1594;DHT22;790;47.000;16.084;2022-07-23T13:53:10;35.10;94.00
1594;DHT22;790;47.000;16.084;2022-07-23T13:55:38;35.10;93.30
1594;DHT22;790;47.000;16.084;2022-07-23T13:58:06;35.20;93.10
1594;DHT22;790;47.000;16.084;2022-07-23T14:00:35;35.20;93.80
1594;DHT22;790;47.000;16.084;2022-07-23T14:03:03;35.20;92.10
1594;DHT22;790;47.000;16.084;2022-07-23T14:05:30;35.10;93.30
1594;DHT22;790;47.000;16.084;2022-07-23T14:07:59;35.10;92.70
1594;DHT22;790;47.000;16.084;2022-07-23T14:10:27;35.00;94.60
1594;DHT22;790;47.000;16.084;2022-07-23T14:12:54;35.00;95.30
1594;DHT22;790;47.000;16.084;2022-07-23T14:15:24;35.00;96.10
1594;DHT22;790;47.000;16.084;2022-07-23T14:17:52;35.00;95.00
1594;DHT22;790;47.000;16.084;2022-07-23T14:20:19;35.10;94.20
1594;DHT22;790;47.000;16.084;2022-07-23T14:22:47;35.00;95.50
1594;DHT22;790;47.000;16.084;2022-07-23T14:25:16;34.90;97.00
1594;DHT22;790;47.000;16.084;2022-07-23T14:27:44;34.70;96.70
1594;DHT22;790;47.000;16.084;2022-07-23T14:30:12;34.40;98.60
1594;DHT22;790;47.000;16.084;2022-07-23T14:32:40;33.70;92.80
1594;DHT22;790;47.000;16.084;2022-07-23T14:35:08;33.20;93.00
1594;DHT22;790;47.000;16.084;2022-07-23T14:37:35;32.90;92.80
1594;DHT22;790;47.000;16.084;2022-07-23T14:40:03;32.40;93.10
1594;DHT22;790;47.000;16.084;2022-07-23T14:42:31;32.10;94.50
1594;DHT22;790;47.000;16.084;2022-07-23T14:44:59;32.10;93.70
1594;DHT22;790;47.000;16.084;2022-07-23T14:47:26;32.10;94.90
1594;DHT22;790;47.000;16.084;2022-07-23T14:49:53;31.80;94.50
1594;DHT22;790;47.000;16.084;2022-07-23T14:52:20;31.70;94.40
1594;DHT22;790;47.000;16.084;2022-07-23T14:54:47;31.60;95.00
1594;DHT22;790;47.000;16.084;2022-07-23T14:57:14;31.50;96.80
1594;DHT22;790;47.000;16.084;2022-07-23T14:59:42;31.40;95.10
1594;DHT22;790;47.000;16.084;2022-07-23T15:02:09;31.30;96.10
1594;DHT22;790;47.000;16.084;2022-07-23T15:04:37;31.30;96.30
1594;DHT22;790;47.000;16.084;2022-07-23T15:07:04;31.10;95.70
1594;DHT22;790;47.000;16.084;2022-07-23T15:09:31;31.00;95.90
1594;DHT22;790;47.000;16.084;2022-07-23T15:11:58;30.80;95.80
1594;DHT22;790;47.000;16.084;2022-07-23T15:14:26;30.70;95.60
1594;DHT22;790;47.000;16.084;2022-07-23T15:16:54;30.60;96.40
1594;DHT22;790;47.000;16.084;2022-07-23T15:19:22;30.60;96.50
1594;DHT22;790;47.000;16.084;2022-07-23T15:21:49;30.80;96.80
1594;DHT22;790;47.000;16.084;2022-07-23T15:24:16;30.70;97.10
1594;DHT22;790;47.000;16.084;2022-07-23T15:26:43;30.60;97.10
1594;DHT22;790;47.000;16.084;2022-07-23T15:29:10;30.60;97.80
1594;DHT22;790;47.000;16.084;2022-07-23T15:31:37;30.60;97.60
1594;DHT22;790;47.000;16.084;2022-07-23T15:34:06;30.50;97.80
1594;DHT22;790;47.000;16.084;2022-07-23T15:36:33;30.50;98.40
1594;DHT22;790;47.000;16.084;2022-07-23T15:39:00;30.40;98.70
1594;DHT22;790;47.000;16.084;2022-07-23T15:41:27;30.30;97.80
1594;DHT22;790;47.000;16.084;2022-07-23T15:43:54;30.30;97.40
1594;DHT22;790;47.000;16.084;2022-07-23T15:46:22;30.30;98.20
1594;DHT22;790;47.000;16.084;2022-07-23T15:48:50;30.10;97.60
1594;DHT22;790;47.000;16.084;2022-07-23T15:51:18;30.00;97.80
1594;DHT22;790;47.000;16.084;2022-07-23T15:53:45;29.80;97.50
1594;DHT22;790;47.000;16.084;2022-07-23T15:56:12;29.70;98.40
1594;DHT22;790;47.000;16.084;2022-07-23T15:58:40;29.50;98.10
1594;DHT22;790;47.000;16.084;2022-07-23T16:01:07;29.50;98.50
1594;DHT22;790;47.000;16.084;2022-07-23T16:03:34;29.50;98.10
1594;DHT22;790;47.000;16.084;2022-07-23T16:06:02;29.60;98.40
1594;DHT22;790;47.000;16.084;2022-07-23T16:08:31;29.70;97.20
1594;DHT22;790;47.000;16.084;2022-07-23T16:10:58;29.70;97.30
1594;DHT22;790;47.000;16.084;2022-07-23T16:13:26;29.60;98.00
1594;DHT22;790;47.000;16.084;2022-07-23T16:15:53;29.60;97.70
1594;DHT22;790;47.000;16.084;2022-07-23T16:18:20;29.40;97.60